Time;durP1;ratioP1;P1;durP2;ratioP2;P2;SDS_P1;SDS_P2;PMS_P1;PMS_P2;Temp;Humidity;BMP_temperature;BMP_pressure;BME280_temperature;BME280_humidity;BME280_pressure;Samples;Min_cycle;Max_cycle;Signal;HPM_P1;HPM_P2
2023/06/29 00:01:24;;;;;;;;;;;15.70;99.90;;;;;;5075251;28;19951;-87
2023/06/29 00:03:50;;;;;;;;;;;15.80;99.90;;;;;;5076176;28;19908;-84
2023/06/29 00:06:17;;;;;;;;;;;15.80;99.90;;;;;;5072188;28;19987;-86
2023/06/29 00:08:43;;;;;;;;;;;15.80;99.90;;;;;;5076846;28;19923;-89
2023/06/29 00:11:08;;;;;;;;;;;15.60;99.90;;;;;;5084309;28;19908;-84
2023/06/29 00:13:34;;;;;;;;;;;15.60;99.90;;;;;;5112319;28;19912;-88
2023/06/29 00:16:00;;;;;;;;;;;15.60;99.90;;;;;;5097611;28;19913;-84
2023/06/29 00:18:28;;;;;;;;;;;15.70;99.90;;;;;;5110387;28;19943;-83
2023/06/29 00:20:54;;;;;;;;;;;15.70;99.90;;;;;;5097881;28;20381;-82
2023/06/29 00:23:20;;;;;;;;;;;15.70;99.90;;;;;;5118105;28;19908;-84
2023/06/29 00:25:47;;;;;;;;;;;15.80;99.90;;;;;;5094458;28;19916;-84
2023/06/29 00:28:16;;;;;;;;;;;15.80;99.90;;;;;;5095508;28;19930;-85
2023/06/29 00:30:42;;;;;;;;;;;15.70;99.90;;;;;;5097240;28;19912;-85
2023/06/29 00:33:08;;;;;;;;;;;15.90;99.90;;;;;;5110109;28;20357;-85
2023/06/29 00:35:34;;;;;;;;;;;15.90;99.90;;;;;;5108160;28;19915;-85
2023/06/29 00:38:00;;;;;;;;;;;15.90;99.90;;;;;;5100291;28;19912;-85
2023/06/29 00:40:25;;;;;;;;;;;15.90;99.90;;;;;;5105377;28;19908;-85
2023/06/29 00:42:53;;;;;;;;;;;15.80;99.90;;;;;;5104468;28;19999;-85
2023/06/29 00:45:18;;;;;;;;;;;15.80;99.90;;;;;;5106792;28;19919;-87
2023/06/29 00:47:44;;;;;;;;;;;15.80;99.90;;;;;;5109720;28;20398;-85
2023/06/29 00:50:10;;;;;;;;;;;15.90;99.90;;;;;;5089305;28;19953;-85
2023/06/29 00:52:35;;;;;;;;;;;16.00;99.90;;;;;;5117811;28;19908;-86
2023/06/29 00:55:02;;;;;;;;;;;16.10;99.90;;;;;;5087431;28;19920;-85
2023/06/29 00:57:29;;;;;;;;;;;16.10;99.90;;;;;;5125725;28;19927;-85
2023/06/29 00:59:59;;;;;;;;;;;16.00;99.90;;;;;;5094090;28;19941;-85
2023/06/29 01:02:25;;;;;;;;;;;16.00;99.90;;;;;;5101950;28;19914;-84
2023/06/29 01:04:51;;;;;;;;;;;16.00;99.90;;;;;;5104492;28;19984;-84
2023/06/29 01:07:22;;;;;;;;;;;16.00;99.90;;;;;;5113711;28;20314;-84
2023/06/29 01:09:48;;;;;;;;;;;16.00;99.90;;;;;;5110998;28;20383;-84
2023/06/29 01:12:15;;;;;;;;;;;16.00;99.90;;;;;;5124514;28;19922;-84
2023/06/29 01:14:41;;;;;;;;;;;16.00;99.90;;;;;;5117558;28;20008;-84
2023/06/29 01:17:11;;;;;;;;;;;16.00;99.90;;;;;;5119238;28;19919;-84
2023/06/29 01:19:38;;;;;;;;;;;15.90;99.90;;;;;;5118643;28;19935;-84
2023/06/29 01:22:15;;;;;;;;;;;15.90;99.90;;;;;;5122343;28;20401;-85
2023/06/29 01:24:41;;;;;;;;;;;15.90;99.90;;;;;;5109927;28;20718;-84
2023/06/29 01:27:07;;;;;;;;;;;16.00;99.90;;;;;;5103971;28;19908;-86
2023/06/29 01:29:32;;;;;;;;;;;16.00;99.90;;;;;;5118408;28;19929;-85
2023/06/29 01:32:03;;;;;;;;;;;16.10;99.90;;;;;;5096128;28;19912;-87
2023/06/29 01:34:32;;;;;;;;;;;16.00;99.90;;;;;;5101901;28;19915;-84
2023/06/29 01:37:09;;;;;;;;;;;16.00;99.90;;;;;;5119672;28;19915;-85
2023/06/29 01:39:42;;;;;;;;;;;15.90;99.90;;;;;;5123541;28;19912;-83
2023/06/29 01:42:08;;;;;;;;;;;15.80;99.90;;;;;;5121356;28;19995;-84
2023/06/29 01:44:34;;;;;;;;;;;15.90;99.90;;;;;;5101358;28;19912;-83
2023/06/29 01:47:00;;;;;;;;;;;15.90;99.90;;;;;;5119398;28;19918;-83
2023/06/29 01:49:27;;;;;;;;;;;15.90;99.90;;;;;;5136179;28;20318;-83
2023/06/29 01:51:52;;;;;;;;;;;16.00;99.90;;;;;;5126815;28;19908;-83
2023/06/29 01:54:18;;;;;;;;;;;16.00;99.90;;;;;;5122836;28;19916;-83
2023/06/29 01:56:44;;;;;;;;;;;16.00;99.90;;;;;;5122274;28;20387;-83
2023/06/29 01:59:10;;;;;;;;;;;16.00;99.90;;;;;;5121496;28;19912;-85
2023/06/29 02:01:36;;;;;;;;;;;16.00;99.90;;;;;;5112238;28;20312;-86
2023/06/29 02:04:02;;;;;;;;;;;16.00;99.90;;;;;;5120179;28;19908;-83
2023/06/29 02:06:28;;;;;;;;;;;16.00;99.90;;;;;;5112964;28;19927;-84
2023/06/29 02:08:54;;;;;;;;;;;16.00;99.90;;;;;;5118522;28;19907;-83
2023/06/29 02:11:20;;;;;;;;;;;16.10;99.90;;;;;;5120825;27;20402;-84
2023/06/29 02:13:46;;;;;;;;;;;16.10;99.90;;;;;;5118047;28;19914;-85
2023/06/29 02:16:11;;;;;;;;;;;16.00;99.90;;;;;;5116894;28;19908;-84
2023/06/29 02:18:37;;;;;;;;;;;16.00;99.90;;;;;;5109137;28;20015;-85
2023/06/29 02:21:03;;;;;;;;;;;16.10;99.90;;;;;;5119437;28;20002;-84
2023/06/29 02:23:28;;;;;;;;;;;16.00;99.90;;;;;;5117435;28;19960;-85
2023/06/29 02:25:54;;;;;;;;;;;16.00;99.90;;;;;;5116713;28;20431;-84
2023/06/29 02:28:19;;;;;;;;;;;16.00;99.90;;;;;;5119001;28;19945;-86
2023/06/29 02:30:45;;;;;;;;;;;16.00;99.90;;;;;;5117368;28;19915;-84
2023/06/29 02:33:10;;;;;;;;;;;15.90;99.90;;;;;;5118093;28;19908;-85
2023/06/29 02:35:36;;;;;;;;;;;15.80;99.90;;;;;;5107607;28;19908;-84
2023/06/29 02:38:02;;;;;;;;;;;15.70;99.90;;;;;;5092987;28;19912;-85
2023/06/29 02:40:27;;;;;;;;;;;15.60;99.90;;;;;;5135009;28;19915;-85
2023/06/29 02:42:53;;;;;;;;;;;15.50;99.90;;;;;;5109002;28;19908;-85
2023/06/29 02:45:18;;;;;;;;;;;15.50;99.90;;;;;;5110837;28;19951;-85
2023/06/29 02:47:44;;;;;;;;;;;15.50;99.90;;;;;;5090558;28;19987;-84
2023/06/29 02:50:10;;;;;;;;;;;15.50;99.90;;;;;;5111313;28;19912;-85
2023/06/29 02:52:36;;;;;;;;;;;15.50;99.90;;;;;;5120831;28;19987;-85
2023/06/29 02:55:01;;;;;;;;;;;15.50;99.90;;;;;;5114802;28;19919;-86
2023/06/29 02:57:27;;;;;;;;;;;15.50;99.90;;;;;;5116441;28;19912;-84
2023/06/29 02:59:53;;;;;;;;;;;15.50;99.90;;;;;;5116411;28;19981;-85
2023/06/29 03:02:18;;;;;;;;;;;15.50;99.90;;;;;;5103659;28;19916;-85
2023/06/29 03:04:44;;;;;;;;;;;15.40;99.90;;;;;;5096460;28;19988;-85
2023/06/29 03:07:09;;;;;;;;;;;15.30;99.90;;;;;;5109402;28;19907;-86
2023/06/29 03:09:35;;;;;;;;;;;15.30;99.90;;;;;;5116354;28;19938;-82
2023/06/29 03:12:01;;;;;;;;;;;15.30;99.90;;;;;;5095465;28;19909;-81
2023/06/29 03:14:26;;;;;;;;;;;15.30;99.90;;;;;;5115533;28;19922;-83
2023/06/29 03:16:52;;;;;;;;;;;15.30;99.90;;;;;;5113289;28;20311;-84
2023/06/29 03:19:18;;;;;;;;;;;15.40;99.90;;;;;;5080995;28;19912;-86
2023/06/29 03:21:43;;;;;;;;;;;15.40;99.90;;;;;;5089215;28;19908;-85
2023/06/29 03:24:09;;;;;;;;;;;15.50;99.90;;;;;;5115971;28;19912;-86
2023/06/29 03:26:35;;;;;;;;;;;15.50;99.90;;;;;;5098875;28;19941;-84
2023/06/29 03:29:00;;;;;;;;;;;15.60;99.90;;;;;;5104158;28;19914;-85
2023/06/29 03:31:26;;;;;;;;;;;15.80;99.90;;;;;;5096641;28;19908;-86
2023/06/29 03:33:52;;;;;;;;;;;15.90;99.90;;;;;;5111335;28;19957;-84
2023/06/29 03:36:19;;;;;;;;;;;15.90;99.90;;;;;;5114806;28;19907;-84
2023/06/29 03:38:44;;;;;;;;;;;16.00;99.90;;;;;;5114027;28;19955;-86
2023/06/29 03:41:10;;;;;;;;;;;16.00;99.90;;;;;;5091672;28;19957;-86
2023/06/29 03:43:35;;;;;;;;;;;16.00;99.90;;;;;;5096055;28;19908;-85
2023/06/29 03:46:01;;;;;;;;;;;16.00;99.90;;;;;;5113667;28;19951;-84
2023/06/29 03:48:30;;;;;;;;;;;16.10;99.90;;;;;;5110446;28;19957;-86
2023/06/29 03:51:00;;;;;;;;;;;16.00;99.90;;;;;;5113183;28;19908;-85
2023/06/29 03:53:25;;;;;;;;;;;16.00;99.90;;;;;;5119435;28;19908;-86
2023/06/29 03:55:51;;;;;;;;;;;15.90;99.90;;;;;;5099109;28;19927;-84
2023/06/29 03:58:17;;;;;;;;;;;15.90;99.90;;;;;;5110917;28;20036;-85
2023/06/29 04:00:42;;;;;;;;;;;15.80;99.90;;;;;;5117236;28;20142;-85
2023/06/29 04:03:08;;;;;;;;;;;15.90;99.90;;;;;;5108849;28;19953;-84
2023/06/29 04:05:34;;;;;;;;;;;15.90;99.90;;;;;;5109506;28;19926;-84
2023/06/29 04:08:03;;;;;;;;;;;15.90;99.90;;;;;;5091060;28;19995;-85
2023/06/29 04:10:29;;;;;;;;;;;15.80;99.90;;;;;;5106593;28;20319;-85
2023/06/29 04:12:55;;;;;;;;;;;15.80;99.90;;;;;;5113586;28;20006;-85
2023/06/29 04:15:21;;;;;;;;;;;15.90;99.90;;;;;;5106201;28;19935;-83
2023/06/29 04:17:46;;;;;;;;;;;16.00;99.90;;;;;;5113372;28;19911;-84
2023/06/29 04:20:12;;;;;;;;;;;16.00;99.90;;;;;;5114466;28;20373;-84
2023/06/29 04:22:38;;;;;;;;;;;15.90;99.90;;;;;;5095100;28;19969;-86
2023/06/29 04:25:04;;;;;;;;;;;15.70;99.90;;;;;;5098289;28;19919;-84
2023/06/29 04:27:33;;;;;;;;;;;15.70;99.90;;;;;;5112064;28;19939;-85
2023/06/29 04:29:58;;;;;;;;;;;15.80;99.90;;;;;;5123024;28;19912;-85
2023/06/29 04:32:24;;;;;;;;;;;15.90;99.90;;;;;;5114898;28;20383;-85
2023/06/29 04:34:50;;;;;;;;;;;16.00;99.90;;;;;;5111532;28;20003;-86
2023/06/29 04:37:15;;;;;;;;;;;16.10;99.90;;;;;;5117441;28;19908;-87
2023/06/29 04:39:41;;;;;;;;;;;15.90;99.90;;;;;;5094110;28;20337;-86
2023/06/29 04:42:13;;;;;;;;;;;15.90;99.90;;;;;;5110544;28;19957;-87
2023/06/29 04:44:39;;;;;;;;;;;16.00;99.90;;;;;;5106339;28;19916;-86
2023/06/29 04:47:05;;;;;;;;;;;16.00;99.90;;;;;;5122897;28;19912;-86
2023/06/29 04:49:36;;;;;;;;;;;16.00;99.90;;;;;;5122251;28;20261;-86
2023/06/29 04:52:02;;;;;;;;;;;16.00;99.90;;;;;;5113861;28;19961;-86
2023/06/29 04:54:28;;;;;;;;;;;16.00;99.90;;;;;;5093087;28;19916;-87
2023/06/29 04:56:56;;;;;;;;;;;16.10;99.90;;;;;;5124754;28;21195;-85
2023/06/29 04:59:23;;;;;;;;;;;16.10;99.90;;;;;;5060326;28;19913;-86
2023/06/29 05:01:48;;;;;;;;;;;16.10;99.90;;;;;;5052577;28;19947;-86
2023/06/29 05:04:14;;;;;;;;;;;16.20;99.90;;;;;;5057121;28;19913;-86
2023/06/29 05:06:40;;;;;;;;;;;16.20;99.90;;;;;;5058053;28;19932;-87
2023/06/29 05:09:05;;;;;;;;;;;16.20;99.90;;;;;;5057106;28;19939;-87
2023/06/29 05:11:31;;;;;;;;;;;16.30;99.90;;;;;;5054048;28;19909;-86
2023/06/29 05:13:57;;;;;;;;;;;16.30;99.90;;;;;;5053524;28;20384;-84
2023/06/29 05:16:22;;;;;;;;;;;16.50;99.90;;;;;;5067267;28;19935;-86
2023/06/29 05:18:48;;;;;;;;;;;16.50;99.90;;;;;;5058628;28;19908;-86
2023/06/29 05:21:14;;;;;;;;;;;16.40;99.90;;;;;;5050537;28;19948;-85
2023/06/29 05:23:40;;;;;;;;;;;16.40;99.90;;;;;;5048992;28;19925;-85
2023/06/29 05:26:05;;;;;;;;;;;16.70;99.90;;;;;;5063662;28;20344;-82
2023/06/29 05:28:31;;;;;;;;;;;17.30;99.90;;;;;;5052692;28;19909;-83
2023/06/29 05:30:57;;;;;;;;;;;18.10;99.90;;;;;;5098176;28;19911;-84
2023/06/29 05:33:23;;;;;;;;;;;19.30;99.90;;;;;;5128635;28;19915;-83
2023/06/29 05:35:49;;;;;;;;;;;19.80;99.90;;;;;;5106193;28;19971;-82
2023/06/29 05:38:14;;;;;;;;;;;19.70;98.30;;;;;;5136218;28;19911;-81
2023/06/29 05:40:40;;;;;;;;;;;20.30;96.90;;;;;;5122058;28;20286;-81
2023/06/29 05:43:06;;;;;;;;;;;20.40;95.10;;;;;;5106910;28;20298;-82
2023/06/29 05:45:32;;;;;;;;;;;21.20;94.20;;;;;;5118452;28;19970;-80
2023/06/29 05:47:57;;;;;;;;;;;23.10;92.80;;;;;;5116014;28;19915;-79
2023/06/29 05:50:23;;;;;;;;;;;24.70;89.90;;;;;;5116145;28;20432;-80
2023/06/29 05:52:49;;;;;;;;;;;24.10;81.80;;;;;;5101485;28;19907;-79
2023/06/29 05:55:14;;;;;;;;;;;23.70;81.80;;;;;;5126448;28;20241;-80
2023/06/29 05:57:40;;;;;;;;;;;23.40;79.80;;;;;;5120539;27;19915;-80
2023/06/29 06:00:11;;;;;;;;;;;23.80;82.10;;;;;;5095918;28;19908;-81
2023/06/29 06:02:37;;;;;;;;;;;24.30;81.00;;;;;;5114535;27;20257;-80
2023/06/29 06:05:02;;;;;;;;;;;24.60;80.80;;;;;;5123175;27;19922;-80
2023/06/29 06:07:29;;;;;;;;;;;25.00;76.70;;;;;;5121157;27;20395;-80
2023/06/29 06:09:55;;;;;;;;;;;25.00;74.50;;;;;;5129059;27;19937;-79
2023/06/29 06:12:22;;;;;;;;;;;23.40;74.00;;;;;;5116926;27;19937;-80
2023/06/29 06:14:47;;;;;;;;;;;22.60;77.10;;;;;;5103844;27;20027;-81
2023/06/29 06:17:13;;;;;;;;;;;22.30;78.80;;;;;;5117367;27;19916;-80
2023/06/29 06:19:38;;;;;;;;;;;22.10;79.20;;;;;;5117845;28;19908;-79
2023/06/29 06:22:04;;;;;;;;;;;21.80;79.50;;;;;;5106957;28;19912;-80
2023/06/29 06:24:31;;;;;;;;;;;22.00;80.70;;;;;;5096848;28;19989;-80
2023/06/29 06:26:56;;;;;;;;;;;22.30;79.50;;;;;;5080182;28;19923;-78
2023/06/29 06:29:22;;;;;;;;;;;22.70;79.70;;;;;;5099221;28;19912;-79
2023/06/29 06:31:48;;;;;;;;;;;24.20;79.00;;;;;;5107685;28;19958;-78
2023/06/29 06:34:13;;;;;;;;;;;24.40;72.60;;;;;;5097354;28;19908;-80
2023/06/29 06:36:39;;;;;;;;;;;23.40;72.90;;;;;;5081363;28;19987;-80
2023/06/29 06:39:05;;;;;;;;;;;23.00;75.40;;;;;;5107352;28;19912;-79
2023/06/29 06:41:31;;;;;;;;;;;23.70;77.10;;;;;;5085047;28;20342;-80
2023/06/29 06:43:57;;;;;;;;;;;24.50;74.30;;;;;;5128070;27;19911;-80
2023/06/29 06:46:23;;;;;;;;;;;24.70;71.30;;;;;;5089425;27;19916;-79
2023/06/29 06:48:48;;;;;;;;;;;;;;;;;;5095971;28;20365;-79
2023/06/29 06:51:14;;;;;;;;;;;;;;;;;;5096151;28;19950;-79
2023/06/29 06:53:40;;;;;;;;;;;25.60;68.60;;;;;;5122513;27;20002;-80
2023/06/29 06:56:06;;;;;;;;;;;;;;;;;;5104105;28;20364;-80
2023/06/29 06:58:32;;;;;;;;;;;29.40;60.60;;;;;;5101007;28;19994;-80
2023/06/29 07:00:58;;;;;;;;;;;;;;;;;;5104578;28;19914;-80
2023/06/29 07:03:25;;;;;;;;;;;33.90;51.00;;;;;;5077853;28;19987;-80
2023/06/29 07:05:53;;;;;;;;;;;;;;;;;;5118918;28;19920;-79
2023/06/29 07:08:19;;;;;;;;;;;35.30;46.50;;;;;;5114866;28;19967;-80
2023/06/29 07:10:47;;;;;;;;;;;33.60;46.10;;;;;;5121295;28;19912;-80
2023/06/29 07:13:13;;;;;;;;;;;31.00;46.60;;;;;;5119204;28;19908;-79
2023/06/29 07:15:38;;;;;;;;;;;30.00;50.60;;;;;;5098835;28;19915;-79
2023/06/29 07:18:04;;;;;;;;;;;30.80;50.20;;;;;;5095530;28;19928;-80
2023/06/29 07:20:29;;;;;;;;;;;30.60;49.90;;;;;;5121606;27;19921;-79
2023/06/29 07:22:55;;;;;;;;;;;31.70;51.20;;;;;;5133876;27;19914;-80
2023/06/29 07:25:21;;;;;;;;;;;33.90;50.20;;;;;;5134693;27;20005;-80
2023/06/29 07:27:46;;;;;;;;;;;35.90;46.90;;;;;;5115532;27;19911;-80
2023/06/29 07:30:12;;;;;;;;;;;;;;;;;;5134558;27;19911;-80
2023/06/29 07:32:38;;;;;;;;;;;37.90;44.60;;;;;;5133655;27;19960;-81
2023/06/29 07:35:05;;;;;;;;;;;37.70;43.70;;;;;;5133333;27;19911;-80
2023/06/29 07:37:31;;;;;;;;;;;37.70;43.20;;;;;;5131043;27;19912;-80
2023/06/29 07:39:57;;;;;;;;;;;38.50;42.40;;;;;;5133635;27;19930;-80
2023/06/29 07:42:22;;;;;;;;;;;38.20;41.10;;;;;;5133925;27;19907;-79
2023/06/29 07:44:48;;;;;;;;;;;37.80;41.50;;;;;;5133685;27;19915;-81
2023/06/29 07:47:14;;;;;;;;;;;37.90;42.60;;;;;;5136246;27;19954;-82
2023/06/29 07:49:39;;;;;;;;;;;38.90;40.90;;;;;;5122587;27;19969;-81
2023/06/29 07:52:05;;;;;;;;;;;;;;;;;;5137310;27;19908;-82
2023/06/29 07:54:31;;;;;;;;;;;;;;;;;;5115866;27;19998;-78
2023/06/29 07:56:57;;;;;;;;;;;39.40;39.50;;;;;;5134447;27;19908;-80
2023/06/29 07:59:23;;;;;;;;;;;;;;;;;;5133293;27;19933;-81
2023/06/29 08:01:49;;;;;;;;;;;;;;;;;;5114279;27;19958;-80
2023/06/29 08:04:16;;;;;;;;;;;;;;;;;;5133790;27;19911;-80
2023/06/29 08:06:43;;;;;;;;;;;;;;;;;;5131073;27;19915;-80
2023/06/29 08:09:09;;;;;;;;;;;;;;;;;;5133587;27;19911;-80
2023/06/29 08:11:35;;;;;;;;;;;;;;;;;;5115129;27;19915;-81
2023/06/29 08:14:01;;;;;;;;;;;;;;;;;;5134036;27;19907;-81
2023/06/29 08:16:27;;;;;;;;;;;;;;;;;;5133980;27;19979;-79
2023/06/29 08:18:53;;;;;;;;;;;;;;;;;;5085837;28;19915;-79
2023/06/29 08:21:19;;;;;;;;;;;;;;;;;;5099395;28;19958;-80
2023/06/29 08:23:46;;;;;;;;;;;;;;;;;;5105316;27;20362;-79
2023/06/29 08:26:12;;;;;;;;;;;;;;;;;;5111057;27;20292;-80
2023/06/29 08:28:38;;;;;;;;;;;;;;;;;;5080762;28;19926;-79
2023/06/29 08:31:04;;;;;;;;;;;36.50;37.40;;;;;;5095719;28;19954;-80
2023/06/29 08:33:29;;;;;;;;;;;35.70;38.20;;;;;;5093547;28;20003;-80
2023/06/29 08:35:55;;;;;;;;;;;34.30;38.90;;;;;;5106421;28;20347;-80
2023/06/29 08:38:21;;;;;;;;;;;;;;;;;;5093194;28;19908;-80
2023/06/29 08:40:47;;;;;;;;;;;32.60;40.20;;;;;;5101134;27;20280;-79
2023/06/29 08:43:15;;;;;;;;;;;30.60;43.80;;;;;;5111103;27;19915;-80
2023/06/29 08:45:42;;;;;;;;;;;31.70;44.00;;;;;;5121252;27;19916;-79
2023/06/29 08:48:08;;;;;;;;;;;32.10;42.00;;;;;;5103149;28;19939;-81
2023/06/29 08:50:35;;;;;;;;;;;32.60;42.60;;;;;;5119908;27;20316;-80
2023/06/29 08:53:01;;;;;;;;;;;33.40;42.20;;;;;;5122773;27;19962;-80
2023/06/29 08:55:27;;;;;;;;;;;34.70;41.90;;;;;;5118274;28;20080;-80
2023/06/29 08:57:54;;;;;;;;;;;36.60;40.60;;;;;;5127570;27;19947;-80
2023/06/29 09:00:20;;;;;;;;;;;38.20;39.30;;;;;;5115632;28;19915;-80
2023/06/29 09:02:46;;;;;;;;;;;40.40;36.40;;;;;;5121385;28;20003;-81
2023/06/29 09:05:13;;;;;;;;;;;;;;;;;;5123752;28;19923;-81
2023/06/29 09:07:41;;;;;;;;;;;40.60;37.00;;;;;;5111343;28;20421;-80
2023/06/29 09:10:07;;;;;;;;;;;;;;;;;;5128913;28;19915;-82
2023/06/29 09:12:36;;;;;;;;;;;;;;;;;;5108940;28;20337;-80
2023/06/29 09:15:02;;;;;;;;;;;41.90;35.40;;;;;;5137783;28;20010;-80
2023/06/29 09:17:33;;;;;;;;;;;43.30;34.30;;;;;;5134334;28;19923;-81
2023/06/29 09:20:00;;;;;;;;;;;;;;;;;;5074920;28;19967;-80
2023/06/29 09:22:26;;;;;;;;;;;38.80;34.20;;;;;;5092387;28;19908;-82
2023/06/29 09:24:58;;;;;;;;;;;37.20;36.10;;;;;;5092476;28;19920;-80
2023/06/29 09:27:24;;;;;;;;;;;;;;;;;;5093336;28;19915;-82
2023/06/29 09:29:53;;;;;;;;;;;;;;;;;;5113170;28;19912;-82
2023/06/29 09:32:19;;;;;;;;;;;36.20;36.80;;;;;;5084049;28;19912;-82
2023/06/29 09:34:48;;;;;;;;;;;38.00;36.80;;;;;;5100611;28;19912;-83
2023/06/29 09:37:15;;;;;;;;;;;37.90;36.20;;;;;;5097103;28;19951;-79
2023/06/29 09:39:57;;;;;;;;;;;36.60;36.50;;;;;;5103057;28;19953;-80
2023/06/29 09:42:23;;;;;;;;;;;35.10;37.30;;;;;;5106081;28;19908;-81
2023/06/29 09:44:49;;;;;;;;;;;33.90;39.30;;;;;;5096366;28;19922;-80
2023/06/29 09:47:16;;;;;;;;;;;32.70;39.60;;;;;;5097369;27;20002;-83
2023/06/29 09:49:48;;;;;;;;;;;31.00;41.40;;;;;;5135846;27;19916;-81
2023/06/29 09:52:15;;;;;;;;;;;29.60;43.50;;;;;;5136330;27;19950;-82
2023/06/29 09:54:41;;;;;;;;;;;29.30;45.50;;;;;;5134898;27;20002;-80
2023/06/29 09:57:10;;;;;;;;;;;30.30;45.80;;;;;;5136166;27;19966;-82
2023/06/29 09:59:39;;;;;;;;;;;31.10;44.50;;;;;;5135835;27;19908;-84
2023/06/29 10:02:11;;;;;;;;;;;31.90;44.30;;;;;;5135116;27;19915;-83
2023/06/29 10:04:40;;;;;;;;;;;32.00;43.60;;;;;;5135295;27;19922;-83
2023/06/29 10:07:08;;;;;;;;;;;32.90;43.00;;;;;;5131342;27;19952;-82
2023/06/29 10:09:38;;;;;;;;;;;33.30;41.90;;;;;;5116811;28;19908;-82
2023/06/29 10:12:05;;;;;;;;;;;33.60;42.00;;;;;;5114098;27;19996;-82
2023/06/29 10:14:32;;;;;;;;;;;34.80;42.10;;;;;;5121208;27;19908;-81
2023/06/29 10:17:00;;;;;;;;;;;35.20;40.10;;;;;;5131312;27;19914;-82
2023/06/29 10:19:26;;;;;;;;;;;35.00;39.60;;;;;;5080458;28;19908;-84
2023/06/29 10:22:00;;;;;;;;;;;35.40;39.30;;;;;;5105870;28;19953;-81
2023/06/29 10:24:29;;;;;;;;;;;35.80;38.10;;;;;;5097980;28;19922;-83
2023/06/29 10:26:55;;;;;;;;;;;35.30;38.30;;;;;;5105181;28;19917;-82
2023/06/29 10:29:20;;;;;;;;;;;33.80;39.00;;;;;;5113421;28;19912;-81
2023/06/29 10:31:49;;;;;;;;;;;31.90;40.40;;;;;;5098808;28;19916;-83
2023/06/29 10:34:15;;;;;;;;;;;30.20;42.40;;;;;;5100776;28;19955;-81
2023/06/29 10:36:45;;;;;;;;;;;28.80;44.10;;;;;;5095611;28;20346;-81
2023/06/29 10:39:30;;;;;;;;;;;28.10;45.30;;;;;;5095827;28;19965;-80
2023/06/29 10:41:55;;;;;;;;;;;27.80;46.70;;;;;;5081619;27;19908;-83
2023/06/29 10:44:21;;;;;;;;;;;27.40;46.70;;;;;;5106687;27;19970;-80
2023/06/29 10:46:47;;;;;;;;;;;27.20;47.40;;;;;;5109036;28;19977;-80
2023/06/29 10:49:25;;;;;;;;;;;27.20;47.60;;;;;;5108148;28;19915;-80
2023/06/29 10:51:55;;;;;;;;;;;27.10;47.30;;;;;;5094870;28;19912;-80
2023/06/29 10:54:24;;;;;;;;;;;27.10;47.10;;;;;;5094877;28;19919;-80
2023/06/29 10:56:56;;;;;;;;;;;26.90;47.20;;;;;;5095125;28;19908;-80
2023/06/29 10:59:23;;;;;;;;;;;26.80;47.40;;;;;;5077410;28;19908;-80
2023/06/29 11:01:50;;;;;;;;;;;26.60;47.50;;;;;;5126305;27;19936;-81
2023/06/29 11:04:16;;;;;;;;;;;26.50;47.70;;;;;;5115456;28;20298;-81
2023/06/29 11:06:41;;;;;;;;;;;26.20;48.60;;;;;;5080496;28;19916;-80
2023/06/29 11:09:07;;;;;;;;;;;;;;;;;;5095268;28;19908;-81
2023/06/29 11:11:33;;;;;;;;;;;;;;;;;;5093879;28;19908;-81
2023/06/29 11:14:02;;;;;;;;;;;;;;;;;;5096702;28;19998;-81
2023/06/29 11:16:28;;;;;;;;;;;;;;;;;;5086859;28;19964;-81
2023/06/29 11:18:54;;;;;;;;;;;;;;;;;;5124978;28;20006;-79
2023/06/29 11:21:21;;;;;;;;;;;25.90;49.10;;;;;;5103546;28;19919;-80
2023/06/29 11:23:50;;;;;;;;;;;24.20;53.40;;;;;;5101174;28;19912;-80
2023/06/29 11:26:16;;;;;;;;;;;23.90;53.80;;;;;;5096930;28;19924;-81
2023/06/29 11:28:42;;;;;;;;;;;23.90;54.30;;;;;;5107907;28;19908;-80
2023/06/29 11:31:08;;;;;;;;;;;23.80;54.20;;;;;;5111281;27;19912;-80
2023/06/29 11:33:33;;;;;;;;;;;23.80;54.60;;;;;;5121422;28;19915;-80
2023/06/29 11:35:59;;;;;;;;;;;;;;;;;;5124139;27;19998;-82
2023/06/29 11:38:25;;;;;;;;;;;;;;;;;;5080636;28;19954;-80
2023/06/29 11:40:51;;;;;;;;;;;;;;;;;;5113113;28;19907;-80
2023/06/29 11:43:17;;;;;;;;;;;23.60;54.90;;;;;;5096388;28;19919;-82
2023/06/29 11:45:43;;;;;;;;;;;21.80;62.70;;;;;;5093579;28;19999;-80
2023/06/29 11:48:11;;;;;;;;;;;;;;;;;;5092710;28;19908;-81
2023/06/29 11:50:36;;;;;;;;;;;21.10;64.50;;;;;;5107652;27;19922;-80
2023/06/29 11:53:02;;;;;;;;;;;;;;;;;;5104481;27;19995;-81
2023/06/29 11:55:29;;;;;;;;;;;20.10;71.80;;;;;;5087900;28;19920;-82
2023/06/29 11:57:55;;;;;;;;;;;18.30;85.70;;;;;;5109859;28;19922;-81
2023/06/29 12:00:20;;;;;;;;;;;17.30;92.30;;;;;;5114956;28;19944;-83
2023/06/29 12:02:46;;;;;;;;;;;16.60;98.80;;;;;;5085490;28;20003;-83
2023/06/29 12:05:12;;;;;;;;;;;16.40;99.90;;;;;;5097641;28;19923;-85
2023/06/29 12:07:38;;;;;;;;;;;16.30;99.90;;;;;;5098837;28;19908;-84
2023/06/29 12:10:12;;;;;;;;;;;15.90;99.90;;;;;;5113605;28;19929;-86
2023/06/29 12:12:41;;;;;;;;;;;15.90;99.90;;;;;;5095562;28;20033;-87
2023/06/29 12:15:11;;;;;;;;;;;15.60;99.90;;;;;;5098923;28;19918;-84
2023/06/29 12:17:36;;;;;;;;;;;15.60;99.90;;;;;;5098017;28;19912;-84
2023/06/29 12:20:10;;;;;;;;;;;15.80;99.90;;;;;;5096789;28;19908;-86
2023/06/29 12:22:36;;;;;;;;;;;15.90;99.90;;;;;;5109813;28;20015;-85
2023/06/29 12:25:02;;;;;;;;;;;16.00;99.90;;;;;;5096339;28;19912;-84
2023/06/29 12:27:27;;;;;;;;;;;16.00;99.90;;;;;;5098312;28;19915;-85
2023/06/29 12:29:53;;;;;;;;;;;15.90;99.90;;;;;;5108376;28;19915;-85
2023/06/29 12:32:19;;;;;;;;;;;16.00;99.90;;;;;;5097270;28;19947;-86
2023/06/29 12:34:45;;;;;;;;;;;16.00;99.90;;;;;;5110328;28;20006;-86
2023/06/29 12:37:10;;;;;;;;;;;16.10;99.90;;;;;;5105836;28;19907;-84
2023/06/29 12:39:36;;;;;;;;;;;16.00;99.90;;;;;;5115418;28;20384;-84
2023/06/29 12:42:02;;;;;;;;;;;16.00;99.90;;;;;;5128827;27;19947;-85
2023/06/29 12:44:28;;;;;;;;;;;16.10;99.90;;;;;;5119847;27;19931;-84
2023/06/29 12:46:53;;;;;;;;;;;16.00;99.90;;;;;;5107639;28;19916;-83
2023/06/29 12:49:20;;;;;;;;;;;16.00;99.90;;;;;;5089877;28;20327;-84
2023/06/29 12:51:45;;;;;;;;;;;15.90;99.90;;;;;;5100671;28;19911;-82
2023/06/29 12:54:11;;;;;;;;;;;15.90;99.90;;;;;;5103627;28;19908;-83
2023/06/29 12:56:37;;;;;;;;;;;15.90;99.90;;;;;;5113279;28;19946;-81
2023/06/29 12:59:03;;;;;;;;;;;15.90;99.90;;;;;;5081187;28;19908;-81
2023/06/29 13:01:29;;;;;;;;;;;15.80;99.90;;;;;;5094064;28;20391;-81
2023/06/29 13:03:54;;;;;;;;;;;15.90;99.90;;;;;;5095062;28;20072;-83
2023/06/29 13:06:20;;;;;;;;;;;15.90;99.90;;;;;;5077183;28;20057;-81
2023/06/29 13:08:46;;;;;;;;;;;15.90;99.90;;;;;;5100959;28;20006;-82
2023/06/29 13:11:12;;;;;;;;;;;16.00;99.90;;;;;;5099770;28;19916;-83
2023/06/29 13:13:37;;;;;;;;;;;16.10;99.90;;;;;;5120392;28;19934;-82
2023/06/29 13:16:03;;;;;;;;;;;16.10;99.90;;;;;;5111106;28;19908;-82
2023/06/29 13:18:29;;;;;;;;;;;16.10;99.90;;;;;;5100440;28;19998;-82
2023/06/29 13:20:54;;;;;;;;;;;16.10;99.90;;;;;;5095507;28;19929;-81
2023/06/29 13:23:20;;;;;;;;;;;16.20;99.90;;;;;;5134447;28;20002;-81
2023/06/29 13:25:46;;;;;;;;;;;16.30;99.90;;;;;;5100332;28;19981;-81
2023/06/29 13:28:11;;;;;;;;;;;16.40;99.90;;;;;;5078844;28;19954;-82
2023/06/29 13:30:38;;;;;;;;;;;16.50;99.90;;;;;;5102613;28;19908;-81
2023/06/29 13:33:04;;;;;;;;;;;16.60;99.90;;;;;;5098829;28;19991;-81
2023/06/29 13:35:29;;;;;;;;;;;16.70;99.90;;;;;;5102472;28;20068;-83
2023/06/29 13:37:55;;;;;;;;;;;16.80;99.90;;;;;;5094405;28;19958;-81
2023/06/29 13:40:21;;;;;;;;;;;17.00;99.90;;;;;;5094832;28;20262;-81
2023/06/29 13:42:46;;;;;;;;;;;17.10;99.90;;;;;;5109922;28;19943;-82
2023/06/29 13:45:12;;;;;;;;;;;17.40;99.90;;;;;;5092943;28;19915;-82
2023/06/29 13:47:39;;;;;;;;;;;17.70;99.90;;;;;;5113531;28;19970;-81
2023/06/29 13:50:04;;;;;;;;;;;17.90;99.90;;;;;;5093762;28;19908;-82
2023/06/29 13:52:30;;;;;;;;;;;18.00;99.90;;;;;;5075414;28;19919;-82
2023/06/29 13:54:56;;;;;;;;;;;18.00;99.90;;;;;;5097279;28;20028;-81
2023/06/29 13:57:21;;;;;;;;;;;17.90;99.90;;;;;;5100869;28;19911;-82
2023/06/29 13:59:47;;;;;;;;;;;17.70;99.90;;;;;;5113057;28;19935;-81
2023/06/29 14:02:13;;;;;;;;;;;17.60;99.90;;;;;;5099068;28;20361;-81
2023/06/29 14:04:38;;;;;;;;;;;17.60;99.90;;;;;;5093437;28;19916;-83
2023/06/29 14:07:04;;;;;;;;;;;17.50;99.80;;;;;;5093052;28;19912;-82
2023/06/29 14:09:30;;;;;;;;;;;17.50;99.50;;;;;;5093875;28;19937;-82
2023/06/29 14:11:57;;;;;;;;;;;17.50;99.30;;;;;;5093754;28;19908;-82
2023/06/29 14:14:23;;;;;;;;;;;17.50;99.00;;;;;;5095579;28;19908;-82
2023/06/29 14:16:49;;;;;;;;;;;17.50;98.80;;;;;;5118753;28;20253;-83
2023/06/29 14:19:14;;;;;;;;;;;17.40;98.70;;;;;;5098665;28;20385;-82
2023/06/29 14:21:42;;;;;;;;;;;17.00;98.80;;;;;;5099579;28;20368;-81
2023/06/29 14:24:07;;;;;;;;;;;16.80;99.00;;;;;;5096942;28;19912;-81
2023/06/29 14:26:33;;;;;;;;;;;16.70;99.30;;;;;;5101527;28;19916;-81